FALL weather

Lydenburg Airport
Lydenburg, Mpumalanga, South Africa

Public forecast

Using degrees Celsius for public forecast. Weather courtesy of forecast.io.

METAR (pilot weather report)

Closest report is Kruger Mpumalanga International Airport, 41.1 nm (76.2 km) ESE. Retrieved 2019/05/25 23:00 UTC (20 minutes ago):

FAKN 252300Z AUTO 00000KT //// // ////// 14/13 Q1028

TAF (pilot weather forecast)

Forecast is more than 12 hours old.

Closest forecast is Kruger Mpumalanga International Airport, 41.1 nm (76.2 km) ESE. Retrieved 2017/06/05 04:55 UTC (2 years ago):

TAF FAKN 050300Z 0504/0515 25006KT CAVOK BECMG 0511/0513 13005KT SCT030 BECMG 0513/0515 07005KT TX22/0513ZTN08/0504Z